createdAt,value
2022-08-17T00:02:26.533Z,27.60
2022-08-17T00:04:55.149Z,27.64
2022-08-17T00:07:23.146Z,27.59
2022-08-17T00:09:50.545Z,27.53
2022-08-17T00:12:51.381Z,27.49
2022-08-17T00:15:10.510Z,27.47
2022-08-17T00:17:38.640Z,27.49
2022-08-17T00:20:06.738Z,27.49
2022-08-17T00:22:36.397Z,27.53
2022-08-17T00:25:08.820Z,27.59
2022-08-17T00:27:37.107Z,27.50
2022-08-17T00:30:09.842Z,27.46
2022-08-17T00:33:22.855Z,27.43
2022-08-17T00:35:32.217Z,27.45
2022-08-17T00:37:59.368Z,27.45
2022-08-17T00:40:27.291Z,27.43
2022-08-17T00:43:14.313Z,27.41
2022-08-17T00:45:42.788Z,27.41
2022-08-17T00:48:11.548Z,27.41
2022-08-17T00:51:18.472Z,27.41
2022-08-17T00:54:01.108Z,27.41
2022-08-17T00:56:34.273Z,27.40
2022-08-17T00:59:02.828Z,27.39
2022-08-17T01:01:31.566Z,27.39
2022-08-17T01:04:00.462Z,27.37
2022-08-17T01:06:28.794Z,27.41
2022-08-17T01:08:59.640Z,27.38
2022-08-17T01:11:29.730Z,27.36
2022-08-17T01:13:57.090Z,27.39
2022-08-17T01:16:30.546Z,27.40
2022-08-17T01:19:01.487Z,27.40
2022-08-17T01:21:50.902Z,27.43
2022-08-17T01:24:18.361Z,27.43
2022-08-17T01:26:46.622Z,27.43
2022-08-17T01:29:14.281Z,27.41
2022-08-17T01:31:48.916Z,27.42
2022-08-17T01:34:18.129Z,27.38
2022-08-17T01:36:47.566Z,27.34
2022-08-17T01:39:34.958Z,27.32
2022-08-17T01:42:15.880Z,27.32
2022-08-17T01:44:43.133Z,27.35
2022-08-17T01:47:10.242Z,27.34
2022-08-17T01:49:37.513Z,27.47
2022-08-17T01:52:08.523Z,27.52
2022-08-17T01:54:39.261Z,27.49
2022-08-17T01:57:07.194Z,27.52
2022-08-17T01:59:34.467Z,27.57
2022-08-17T02:02:02.009Z,27.60
2022-08-17T02:04:29.115Z,27.57
2022-08-17T02:06:56.706Z,27.52
2022-08-17T02:09:29.649Z,27.51
2022-08-17T02:11:59.098Z,27.50
2022-08-17T02:14:27.119Z,27.52
2022-08-17T02:16:54.724Z,27.47
2022-08-17T02:19:22.977Z,27.41
2022-08-17T02:21:52.688Z,27.40
2022-08-17T02:24:59.932Z,27.34
2022-08-17T02:27:12.418Z,27.36
2022-08-17T02:29:39.719Z,27.34
2022-08-17T02:32:07.304Z,27.34
2022-08-17T02:34:34.604Z,27.39
2022-08-17T02:37:01.726Z,27.38
2022-08-17T02:39:28.916Z,27.33
2022-08-17T02:42:03.851Z,27.30
2022-08-17T02:44:39.726Z,27.27
2022-08-17T02:47:09.969Z,27.24
2022-08-17T02:49:37.690Z,27.19
2022-08-17T02:52:07.299Z,27.14
2022-08-17T02:54:40.852Z,27.14
2022-08-17T02:57:10.662Z,27.17
2022-08-17T02:59:39.746Z,27.13
2022-08-17T03:02:08.737Z,27.16
2022-08-17T03:04:36.011Z,27.17
2022-08-17T03:07:05.262Z,27.18
2022-08-17T03:09:32.967Z,27.20
2022-08-17T03:12:09.399Z,27.19
2022-08-17T03:14:43.963Z,27.18
2022-08-17T03:17:16.969Z,27.18
2022-08-17T03:19:45.006Z,27.19
2022-08-17T03:22:35.614Z,27.22
2022-08-17T03:24:59.889Z,27.27
2022-08-17T03:27:28.038Z,27.28
2022-08-17T03:29:55.384Z,27.35
2022-08-17T03:32:22.565Z,27.34
2022-08-17T03:34:49.828Z,27.31
2022-08-17T03:37:17.221Z,27.28
2022-08-17T03:39:44.385Z,27.31
2022-08-17T03:42:32.278Z,27.32
2022-08-17T03:45:01.018Z,27.34
2022-08-17T03:47:47.204Z,27.34
2022-08-17T03:50:38.979Z,27.33
2022-08-17T03:53:31.853Z,27.30
2022-08-17T03:56:20.001Z,27.27
2022-08-17T03:58:47.617Z,27.22
2022-08-17T04:01:15.575Z,27.20
2022-08-17T04:03:42.780Z,27.15
2022-08-17T04:06:10.019Z,27.15
2022-08-17T04:08:37.187Z,27.13
2022-08-17T04:11:04.446Z,27.12
2022-08-17T04:13:31.656Z,27.09
2022-08-17T04:16:00.161Z,27.08
2022-08-17T04:18:27.461Z,27.06
2022-08-17T04:20:54.637Z,27.07
2022-08-17T04:23:28.479Z,27.05
2022-08-17T04:25:55.924Z,27.06
2022-08-17T04:28:23.275Z,27.12
2022-08-17T04:30:50.615Z,27.19
2022-08-17T04:33:21.041Z,27.26
2022-08-17T04:35:52.340Z,27.30
2022-08-17T04:38:24.881Z,27.40
2022-08-17T04:41:11.231Z,27.47
2022-08-17T04:43:40.126Z,27.54
2022-08-17T04:46:11.903Z,27.64
2022-08-17T04:48:47.461Z,27.73
2022-08-17T04:51:19.578Z,27.81
2022-08-17T04:53:54.169Z,27.93
2022-08-17T04:56:23.858Z,28.04
2022-08-17T04:58:52.962Z,28.14
2022-08-17T05:01:24.042Z,28.32
2022-08-17T05:03:59.222Z,28.43
2022-08-17T05:06:27.916Z,28.57
2022-08-17T05:08:56.904Z,28.72
2022-08-17T05:11:26.627Z,28.90
2022-08-17T05:13:55.508Z,29.08
2022-08-17T05:16:24.903Z,29.41
2022-08-17T05:18:52.542Z,30.02
2022-08-17T05:21:21.118Z,30.63
2022-08-17T05:23:54.993Z,31.23
2022-08-17T05:26:27.227Z,31.89
2022-08-17T05:29:02.446Z,32.29
2022-08-17T05:31:30.925Z,32.70
2022-08-17T05:33:58.197Z,33.16
2022-08-17T05:36:43.461Z,33.51
2022-08-17T05:39:16.398Z,34.06
2022-08-17T05:41:43.886Z,34.26
2022-08-17T05:44:11.274Z,34.23
2022-08-17T05:46:44.017Z,33.99
2022-08-17T05:49:14.798Z,34.43
2022-08-17T05:51:58.528Z,35.39
2022-08-17T05:54:39.860Z,35.63
2022-08-17T05:57:29.377Z,35.16
2022-08-17T06:00:10.779Z,35.62
2022-08-17T06:02:53.283Z,36.50
2022-08-17T06:05:45.383Z,37.05
2022-08-17T06:08:17.898Z,37.94
2022-08-17T06:11:06.255Z,38.67
2022-08-17T06:14:00.723Z,38.90
2022-08-17T06:16:38.936Z,38.88
2022-08-17T06:19:24.288Z,38.93
2022-08-17T06:21:54.676Z,38.39
2022-08-17T06:25:01.246Z,38.83
2022-08-17T06:27:38.117Z,39.03
2022-08-17T06:30:11.264Z,39.55
2022-08-17T06:32:42.588Z,39.69
2022-08-17T06:35:14.407Z,39.74
2022-08-17T06:38:00.258Z,39.76
2022-08-17T06:40:52.249Z,39.31
2022-08-17T06:43:34.426Z,39.12
2022-08-17T06:46:08.379Z,39.15
2022-08-17T06:49:00.339Z,39.11
2022-08-17T06:51:36.541Z,39.13
2022-08-17T06:54:18.363Z,37.96
2022-08-17T06:56:55.197Z,37.17
2022-08-17T06:59:34.803Z,35.91
2022-08-17T07:02:29.330Z,35.78
2022-08-17T07:05:15.008Z,36.31
2022-08-17T07:08:04.835Z,36.91
2022-08-17T07:10:44.977Z,37.43
2022-08-17T07:13:29.672Z,37.44
2022-08-17T07:16:08.751Z,37.49
2022-08-17T07:18:36.101Z,38.04
2022-08-17T07:21:25.844Z,38.10
2022-08-17T07:24:11.309Z,39.07
2022-08-17T07:27:35.625Z,38.69
2022-08-17T07:30:11.697Z,36.09
2022-08-17T07:33:00.296Z,35.28
2022-08-17T07:35:41.216Z,34.90
2022-08-17T07:38:25.147Z,35.97
2022-08-17T07:41:13.958Z,37.38
2022-08-17T07:43:41.173Z,38.66
2022-08-17T07:46:29.635Z,39.12
2022-08-17T07:49:18.389Z,39.16
2022-08-17T07:51:46.301Z,38.96
2022-08-17T07:54:22.770Z,38.78
2022-08-17T07:56:54.870Z,38.76
2022-08-17T07:59:33.536Z,38.66
2022-08-17T08:02:02.562Z,38.83
2022-08-17T08:05:01.410Z,39.02
2022-08-17T08:07:42.803Z,38.41
2022-08-17T08:10:25.487Z,37.83
2022-08-17T08:13:05.959Z,37.75
2022-08-17T08:15:38.219Z,37.74
2022-08-17T08:18:38.772Z,37.49
2022-08-17T08:21:17.584Z,37.09
2022-08-17T08:23:53.256Z,36.36
2022-08-17T08:26:42.508Z,35.98
2022-08-17T08:29:18.641Z,35.15
2022-08-17T08:31:57.858Z,34.30
2022-08-17T08:35:00.688Z,34.23
2022-08-17T08:37:55.868Z,34.64
2022-08-17T08:40:23.013Z,34.57
2022-08-17T08:43:14.668Z,34.97
2022-08-17T08:46:19.961Z,34.63
2022-08-17T08:49:45.089Z,34.22
2022-08-17T08:52:43.833Z,34.20
2022-08-17T08:55:41.770Z,34.17
2022-08-17T08:58:32.181Z,34.36
2022-08-17T09:01:24.359Z,34.05
2022-08-17T09:04:21.370Z,33.53
2022-08-17T09:07:19.114Z,33.16
2022-08-17T09:10:07.939Z,32.90
2022-08-17T09:13:10.684Z,32.99
2022-08-17T09:15:46.385Z,33.15
2022-08-17T09:19:01.610Z,33.37
2022-08-17T09:21:48.385Z,33.56
2022-08-17T09:24:32.164Z,33.60
2022-08-17T09:27:07.490Z,33.59
2022-08-17T09:29:47.412Z,33.25
2022-08-17T09:32:43.068Z,33.39
2022-08-17T09:35:19.991Z,33.62
2022-08-17T09:38:00.736Z,33.91
2022-08-17T09:40:34.769Z,33.94
2022-08-17T09:43:34.319Z,33.81
2022-08-17T09:46:11.865Z,33.89
2022-08-17T09:48:49.255Z,33.80
2022-08-17T09:51:32.286Z,33.72
2022-08-17T09:54:21.028Z,33.73
2022-08-17T09:57:11.910Z,33.84
2022-08-17T10:00:03.211Z,34.00
2022-08-17T10:03:08.957Z,34.35
2022-08-17T10:06:03.038Z,34.47
2022-08-17T10:08:45.171Z,34.27
2022-08-17T10:11:51.593Z,34.31
2022-08-17T10:14:56.512Z,34.45
2022-08-17T10:18:20.190Z,34.62
2022-08-17T10:21:15.758Z,34.80
2022-08-17T10:24:03.765Z,34.74
2022-08-17T10:26:40.573Z,34.86
2022-08-17T10:29:49.094Z,34.87
2022-08-17T10:32:41.077Z,35.01
2022-08-17T10:35:35.451Z,34.96
2022-08-17T10:38:29.478Z,34.83
2022-08-17T10:40:57.727Z,34.79
2022-08-17T10:43:37.066Z,34.73
2022-08-17T10:46:31.073Z,34.70
2022-08-17T10:49:18.812Z,34.92
2022-08-17T10:51:48.504Z,35.16
2022-08-17T10:54:24.838Z,35.31
2022-08-17T10:56:57.389Z,35.23
2022-08-17T10:59:36.821Z,35.18
2022-08-17T11:02:27.758Z,35.28
2022-08-17T11:05:20.451Z,35.33
2022-08-17T11:07:53.251Z,34.88
2022-08-17T11:10:20.310Z,34.51
2022-08-17T11:12:51.290Z,34.24
2022-08-17T11:15:31.757Z,34.23
2022-08-17T11:18:15.774Z,34.29
2022-08-17T11:21:17.808Z,34.28
2022-08-17T11:24:14.999Z,33.97
2022-08-17T11:26:59.674Z,33.95
2022-08-17T11:30:02.196Z,32.00
2022-08-17T11:32:54.589Z,31.40
2022-08-17T11:35:22.431Z,31.31
2022-08-17T11:38:14.098Z,31.66
2022-08-17T11:40:59.900Z,31.43
2022-08-17T11:44:02.152Z,31.40
2022-08-17T11:46:51.710Z,32.10
2022-08-17T11:49:55.271Z,32.34
2022-08-17T11:52:46.708Z,32.57
2022-08-17T11:55:36.303Z,32.62
2022-08-17T11:58:29.516Z,32.54
2022-08-17T12:01:02.628Z,32.61
2022-08-17T12:03:33.295Z,32.69
2022-08-17T12:06:17.804Z,32.66
2022-08-17T12:09:01.996Z,32.73
2022-08-17T12:11:58.665Z,32.21
2022-08-17T12:14:45.412Z,32.46
2022-08-17T12:17:39.305Z,32.58
2022-08-17T12:20:12.856Z,32.60
2022-08-17T12:23:10.440Z,32.15
2022-08-17T12:25:46.928Z,31.84
2022-08-17T12:28:32.168Z,31.74
2022-08-17T12:31:04.207Z,31.75
2022-08-17T12:33:31.925Z,31.89
2022-08-17T12:36:03.407Z,31.85
2022-08-17T12:38:37.125Z,31.77
2022-08-17T12:41:26.522Z,31.73
2022-08-17T12:44:04.684Z,31.93
2022-08-17T12:46:45.011Z,32.07
2022-08-17T12:49:33.414Z,32.29
2022-08-17T12:52:19.808Z,32.50
2022-08-17T12:54:59.686Z,32.61
2022-08-17T12:57:43.907Z,32.81
2022-08-17T13:00:20.739Z,33.02
2022-08-17T13:02:52.831Z,33.14
2022-08-17T13:05:36.932Z,33.05
2022-08-17T13:08:21.483Z,32.93
2022-08-17T13:11:14.951Z,32.80
2022-08-17T13:13:44.885Z,32.95
2022-08-17T13:16:12.042Z,32.93
2022-08-17T13:18:54.086Z,32.99
2022-08-17T13:21:27.104Z,33.01
2022-08-17T13:24:11.231Z,32.84
2022-08-17T13:26:38.411Z,32.67
2022-08-17T13:29:08.519Z,32.52
2022-08-17T13:31:52.187Z,32.51
2022-08-17T13:34:24.141Z,32.51
2022-08-17T13:37:28.750Z,32.54
2022-08-17T13:39:57.852Z,32.60
2022-08-17T13:42:52.381Z,32.61
2022-08-17T13:45:36.191Z,32.58
2022-08-17T13:48:17.354Z,32.50
2022-08-17T13:50:56.563Z,32.52
2022-08-17T13:53:50.740Z,32.49
2022-08-17T13:56:38.732Z,32.31
2022-08-17T13:59:08.949Z,32.36
2022-08-17T14:01:43.828Z,32.46
2022-08-17T14:04:25.781Z,32.38
2022-08-17T14:07:16.190Z,32.17
2022-08-17T14:09:54.638Z,32.05
2022-08-17T14:12:27.015Z,32.13
2022-08-17T14:14:56.554Z,32.00
2022-08-17T14:17:25.511Z,31.92
2022-08-17T14:19:53.205Z,31.96
2022-08-17T14:22:25.893Z,32.04
2022-08-17T14:24:54.893Z,32.02
2022-08-17T14:27:22.441Z,31.95
2022-08-17T14:29:49.749Z,31.89
2022-08-17T14:32:25.022Z,31.83
2022-08-17T14:34:52.764Z,31.70
2022-08-17T14:37:21.406Z,31.71
2022-08-17T14:39:48.737Z,31.78
2022-08-17T14:42:16.627Z,31.64
2022-08-17T14:44:43.783Z,31.60
2022-08-17T14:47:15.159Z,31.55
2022-08-17T14:49:42.897Z,31.57
2022-08-17T14:52:13.781Z,31.53
2022-08-17T14:54:45.569Z,31.50
2022-08-17T14:57:25.242Z,31.48
2022-08-17T15:00:01.578Z,31.45
2022-08-17T15:02:30.900Z,31.38
2022-08-17T15:05:00.991Z,31.40
2022-08-17T15:07:30.818Z,31.47
2022-08-17T15:10:00.619Z,31.43
2022-08-17T15:12:32.671Z,31.53
2022-08-17T15:15:01.306Z,31.60
2022-08-17T15:17:44.485Z,31.50
2022-08-17T15:20:16.336Z,31.43
2022-08-17T15:22:49.985Z,31.29
2022-08-17T15:28:23.315Z,31.02
2022-08-17T15:30:52.159Z,31.02
2022-08-17T15:33:24.268Z,30.94
2022-08-17T15:35:52.382Z,30.93
2022-08-17T15:38:19.888Z,30.95
2022-08-17T15:40:49.879Z,31.05
2022-08-17T15:43:27.660Z,31.19
2022-08-17T15:46:05.569Z,31.11
2022-08-17T15:48:44.133Z,31.13
2022-08-17T15:51:19.851Z,31.10
2022-08-17T15:54:18.779Z,30.97
2022-08-17T15:56:46.683Z,30.92
2022-08-17T15:59:14.066Z,30.89
2022-08-17T16:03:01.512Z,30.87
2022-08-17T16:04:30.763Z,30.90
2022-08-17T16:06:59.471Z,30.92
2022-08-17T16:09:27.119Z,30.98
2022-08-17T16:11:56.262Z,30.98
2022-08-17T16:14:30.261Z,30.92
2022-08-17T16:17:00.917Z,30.93
2022-08-17T16:19:28.251Z,30.88
2022-08-17T16:21:55.443Z,30.81
2022-08-17T16:24:22.609Z,30.81
2022-08-17T16:29:54.212Z,30.65
2022-08-17T16:32:31.321Z,30.65
2022-08-17T16:35:11.190Z,30.58
2022-08-17T16:37:45.380Z,30.56
2022-08-17T16:40:16.144Z,30.55
2022-08-17T16:42:45.523Z,30.52
2022-08-17T16:45:22.129Z,30.48
2022-08-17T16:47:50.286Z,30.39
2022-08-17T16:50:23.964Z,30.41
2022-08-17T16:52:51.860Z,30.40
2022-08-17T16:55:22.499Z,30.39
2022-08-17T16:57:50.883Z,30.39
2022-08-17T17:00:19.703Z,30.38
2022-08-17T17:02:50.882Z,30.35
2022-08-17T17:05:48.457Z,30.38
2022-08-17T17:08:26.047Z,30.38
2022-08-17T17:10:56.425Z,30.34
2022-08-17T17:13:32.492Z,30.31
2022-08-17T17:16:11.347Z,30.31
2022-08-17T17:19:02.812Z,30.24
2022-08-17T17:21:53.438Z,30.18
2022-08-17T17:24:49.983Z,30.11
2022-08-17T17:27:59.573Z,30.05
2022-08-17T17:30:38.758Z,30.03
2022-08-17T17:33:19.862Z,29.98
2022-08-17T17:35:55.830Z,29.90
2022-08-17T17:38:40.169Z,29.84
2022-08-17T17:41:18.102Z,29.80
2022-08-17T17:43:52.968Z,29.73
2022-08-17T17:46:33.543Z,29.68
2022-08-17T17:49:00.926Z,29.63
2022-08-17T17:52:06.281Z,29.62
2022-08-17T17:54:49.124Z,29.57
2022-08-17T17:57:29.317Z,29.53
2022-08-17T18:00:16.243Z,29.51
2022-08-17T18:03:17.356Z,29.48
2022-08-17T18:06:10.313Z,29.41
2022-08-17T18:08:37.519Z,29.41
2022-08-17T18:11:37.267Z,29.39
2022-08-17T18:14:38.856Z,29.34
2022-08-17T18:17:06.732Z,29.33
2022-08-17T18:19:33.925Z,29.33
2022-08-17T18:22:13.109Z,29.34
2022-08-17T18:24:44.509Z,29.36
2022-08-17T18:27:36.795Z,29.33
2022-08-17T18:30:12.849Z,29.35
2022-08-17T18:32:42.763Z,29.33
2022-08-17T18:35:09.881Z,29.31
2022-08-17T18:37:56.595Z,29.31
2022-08-17T18:40:30.984Z,29.29
2022-08-17T18:43:00.965Z,29.28
2022-08-17T18:45:38.848Z,29.28
2022-08-17T18:48:37.492Z,29.27
2022-08-17T18:51:41.482Z,29.26
2022-08-17T18:54:18.837Z,29.24
2022-08-17T18:57:00.139Z,29.21
2022-08-17T18:59:44.294Z,29.17
2022-08-17T19:02:45.314Z,29.18
2022-08-17T19:05:13.662Z,29.16
2022-08-17T19:07:47.752Z,29.15
2022-08-17T19:10:19.954Z,29.13
2022-08-17T19:13:13.768Z,29.12
2022-08-17T19:16:07.770Z,29.11
2022-08-17T19:18:43.772Z,29.19
2022-08-17T19:21:30.688Z,29.24
2022-08-17T19:24:11.638Z,29.26
2022-08-17T19:26:55.550Z,29.28
2022-08-17T19:29:40.578Z,29.24
2022-08-17T19:32:10.880Z,29.19
2022-08-17T19:34:39.761Z,29.10
2022-08-17T19:37:37.375Z,29.04
2022-08-17T19:40:50.994Z,28.99
2022-08-17T19:43:51.908Z,28.87
2022-08-17T19:46:39.278Z,28.85
2022-08-17T19:49:40.833Z,28.79
2022-08-17T19:52:43.037Z,28.75
2022-08-17T19:55:48.638Z,28.80
2022-08-17T19:58:44.891Z,28.82
2022-08-17T20:01:19.363Z,28.80
2022-08-17T20:03:55.766Z,28.78
2022-08-17T20:06:25.140Z,28.77
2022-08-17T20:09:21.288Z,28.77
2022-08-17T20:11:55.598Z,28.72
2022-08-17T20:14:33.167Z,28.72
2022-08-17T20:17:03.010Z,28.71
2022-08-17T20:19:45.751Z,28.71
2022-08-17T20:22:26.864Z,28.71
2022-08-17T20:25:29.839Z,28.64
2022-08-17T20:28:06.732Z,28.60
2022-08-17T20:30:42.555Z,28.58
2022-08-17T20:33:33.823Z,28.56
2022-08-17T20:36:13.181Z,28.55
2022-08-17T20:38:58.435Z,28.57
2022-08-17T20:41:31.010Z,28.61
2022-08-17T20:43:59.073Z,28.62
2022-08-17T20:46:40.916Z,28.66
2022-08-17T20:49:11.126Z,28.67
2022-08-17T20:52:04.300Z,28.67
2022-08-17T20:54:51.240Z,28.65
2022-08-17T20:57:33.635Z,28.63
2022-08-17T21:00:30.278Z,28.60
2022-08-17T21:03:23.352Z,28.59
2022-08-17T21:05:59.710Z,28.63
2022-08-17T21:08:54.673Z,28.61
2022-08-17T21:12:00.056Z,28.58
2022-08-17T21:14:58.212Z,28.56
2022-08-17T21:17:26.563Z,28.51
2022-08-17T21:20:10.776Z,28.50
2022-08-17T21:22:58.878Z,28.48
2022-08-17T21:26:04.643Z,28.45
2022-08-17T21:29:00.389Z,28.41
2022-08-17T21:31:35.775Z,28.41
2022-08-17T21:34:21.046Z,28.36
2022-08-17T21:36:48.794Z,28.34
2022-08-17T21:39:33.406Z,28.38
2022-08-17T21:42:01.585Z,28.34
2022-08-17T21:44:38.127Z,28.29
2022-08-17T21:47:25.012Z,28.23
2022-08-17T21:49:53.263Z,28.25
2022-08-17T21:52:23.049Z,28.25
2022-08-17T21:54:58.733Z,28.24
2022-08-17T21:57:29.136Z,28.24
2022-08-17T22:00:01.881Z,28.20
2022-08-17T22:02:34.929Z,28.21
2022-08-17T22:05:09.380Z,28.19
2022-08-17T22:07:53.324Z,28.17
2022-08-17T22:10:32.620Z,28.14
2022-08-17T22:13:03.816Z,28.14
2022-08-17T22:15:31.271Z,28.15
2022-08-17T22:18:03.408Z,28.15
2022-08-17T22:20:30.759Z,28.10
2022-08-17T22:23:18.966Z,28.06
2022-08-17T22:26:06.012Z,27.98
2022-08-17T22:28:40.282Z,27.97
2022-08-17T22:31:14.444Z,27.98
2022-08-17T22:33:57.840Z,27.95
2022-08-17T22:36:35.404Z,27.94
2022-08-17T22:39:08.672Z,27.94
2022-08-17T22:41:52.143Z,27.94
2022-08-17T22:44:29.838Z,27.91
2022-08-17T22:47:11.507Z,27.92
2022-08-17T22:50:01.173Z,27.95
2022-08-17T22:53:01.383Z,27.94
2022-08-17T22:55:50.555Z,27.96
2022-08-17T22:58:43.136Z,27.98
2022-08-17T23:01:31.822Z,27.98
2022-08-17T23:04:06.043Z,27.99
2022-08-17T23:06:35.086Z,28.00
2022-08-17T23:09:04.595Z,28.02
2022-08-17T23:11:49.908Z,28.10
2022-08-17T23:14:20.031Z,28.10
2022-08-17T23:16:48.903Z,28.06
2022-08-17T23:19:19.611Z,27.98
2022-08-17T23:21:52.832Z,27.91
2022-08-17T23:24:25.552Z,27.84
2022-08-17T23:26:52.898Z,27.86
2022-08-17T23:29:21.725Z,27.86
2022-08-17T23:31:51.215Z,27.87
2022-08-17T23:34:18.902Z,27.84
2022-08-17T23:36:51.295Z,27.85
2022-08-17T23:39:27.828Z,27.83
2022-08-17T23:41:58.325Z,27.96
2022-08-17T23:44:26.787Z,28.04
2022-08-17T23:46:54.796Z,28.01
2022-08-17T23:49:23.690Z,28.01
2022-08-17T23:51:53.860Z,27.92
2022-08-17T23:54:37.682Z,27.85
2022-08-17T23:57:05.138Z,27.86
2022-08-17T23:59:34.072Z,27.77
